createdAt,value
2022-08-26T00:02:10.122Z,25.72
2022-08-26T00:04:40.543Z,25.74
2022-08-26T00:07:10.201Z,25.76
2022-08-26T00:09:42.108Z,25.71
2022-08-26T00:12:18.591Z,25.61
2022-08-26T00:14:57.520Z,25.50
2022-08-26T00:17:31.318Z,25.38
2022-08-26T00:20:01.063Z,25.30
2022-08-26T00:22:32.700Z,25.25
2022-08-26T00:25:02.648Z,25.20
2022-08-26T00:27:33.434Z,25.11
2022-08-26T00:30:22.776Z,25.07
2022-08-26T00:32:53.776Z,25.00
2022-08-26T00:35:24.108Z,24.92
2022-08-26T00:37:53.687Z,24.92
2022-08-26T00:40:30.964Z,24.94
2022-08-26T00:43:01.840Z,24.94
2022-08-26T00:45:40.261Z,24.87
2022-08-26T00:48:16.409Z,24.80
2022-08-26T00:50:55.273Z,24.72
2022-08-26T00:53:30.405Z,24.64
2022-08-26T00:56:07.476Z,24.59
2022-08-26T00:58:43.873Z,24.59
2022-08-26T01:01:14.277Z,24.64
2022-08-26T01:03:46.607Z,24.72
2022-08-26T01:06:16.365Z,24.78
2022-08-26T01:08:46.359Z,24.87
2022-08-26T01:11:16.936Z,24.94
2022-08-26T01:14:03.292Z,25.02
2022-08-26T01:16:33.281Z,25.08
2022-08-26T01:19:16.068Z,25.10
2022-08-26T01:22:01.218Z,25.09
2022-08-26T01:24:31.800Z,25.12
2022-08-26T01:27:04.879Z,25.15
2022-08-26T01:29:36.989Z,25.21
2022-08-26T01:32:10.575Z,25.24
2022-08-26T01:34:40.787Z,25.26
2022-08-26T01:37:15.619Z,25.30
2022-08-26T01:39:48.151Z,25.34
2022-08-26T01:42:20.972Z,25.36
2022-08-26T01:44:53.604Z,25.37
2022-08-26T01:47:30.093Z,25.37
2022-08-26T01:50:03.182Z,25.29
2022-08-26T01:52:36.787Z,25.22
2022-08-26T01:55:10.144Z,25.15
2022-08-26T01:57:40.054Z,25.16
2022-08-26T02:00:16.273Z,25.19
2022-08-26T02:02:52.789Z,25.18
2022-08-26T02:05:22.289Z,25.21
2022-08-26T02:07:52.308Z,25.23
2022-08-26T02:10:23.461Z,25.17
2022-08-26T02:12:53.315Z,25.15
2022-08-26T02:15:26.803Z,25.14
2022-08-26T02:18:00.930Z,25.12
2022-08-26T02:20:30.402Z,25.13
2022-08-26T02:23:02.817Z,25.04
2022-08-26T02:25:40.352Z,24.97
2022-08-26T02:28:10.455Z,24.97
2022-08-26T02:30:40.499Z,24.96
2022-08-26T02:33:10.096Z,24.95
2022-08-26T02:35:39.998Z,24.95
2022-08-26T02:38:11.078Z,24.92
2022-08-26T02:40:43.282Z,24.88
2022-08-26T02:43:16.979Z,24.88
2022-08-26T02:45:48.291Z,24.88
2022-08-26T02:48:21.356Z,24.88
2022-08-26T02:50:52.346Z,24.82
2022-08-26T02:53:25.279Z,24.78
2022-08-26T02:55:55.431Z,24.76
2022-08-26T02:58:28.253Z,24.77
2022-08-26T03:01:06.025Z,24.80
2022-08-26T03:03:40.629Z,24.83
2022-08-26T03:06:13.797Z,24.85
2022-08-26T03:08:43.890Z,24.82
2022-08-26T03:11:20.540Z,24.78
2022-08-26T03:13:53.753Z,24.75
2022-08-26T03:16:32.271Z,24.71
2022-08-26T03:19:04.247Z,24.69
2022-08-26T03:21:36.870Z,24.67
2022-08-26T03:24:11.414Z,24.72
2022-08-26T03:26:52.081Z,24.73
2022-08-26T03:29:41.118Z,24.64
2022-08-26T03:32:10.900Z,24.55
2022-08-26T03:34:40.700Z,24.45
2022-08-26T03:37:11.151Z,24.34
2022-08-26T03:39:42.833Z,24.27
2022-08-26T03:42:14.487Z,24.22
2022-08-26T03:44:43.722Z,24.14
2022-08-26T03:47:16.608Z,24.06
2022-08-26T03:49:47.109Z,23.97
2022-08-26T03:52:20.236Z,23.93
2022-08-26T03:54:53.953Z,23.87
2022-08-26T03:57:23.145Z,23.78
2022-08-26T03:59:52.700Z,23.66
2022-08-26T04:02:25.644Z,23.59
2022-08-26T04:04:56.769Z,23.55
2022-08-26T04:07:33.340Z,23.51
2022-08-26T04:10:06.330Z,23.44
2022-08-26T04:12:36.094Z,23.36
2022-08-26T04:15:07.490Z,23.33
2022-08-26T04:17:48.884Z,23.30
2022-08-26T04:20:18.286Z,23.26
2022-08-26T04:23:11.860Z,23.21
2022-08-26T04:25:47.805Z,23.16
2022-08-26T04:28:18.243Z,23.13
2022-08-26T04:35:31.592Z,23.00
2022-08-26T04:37:43.523Z,22.97
2022-08-26T04:40:14.597Z,22.98
2022-08-26T04:42:58.014Z,22.96
2022-08-26T04:45:43.518Z,22.97
2022-08-26T04:48:13.299Z,22.95
2022-08-26T04:50:49.579Z,22.92
2022-08-26T04:53:19.159Z,22.90
2022-08-26T04:55:55.382Z,22.90
2022-08-26T04:58:27.493Z,22.93
2022-08-26T05:00:56.734Z,22.98
2022-08-26T05:03:27.061Z,23.01
2022-08-26T05:05:56.251Z,23.03
2022-08-26T05:08:25.823Z,23.06
2022-08-26T05:10:56.396Z,23.11
2022-08-26T05:13:27.819Z,23.12
2022-08-26T05:16:01.332Z,23.15
2022-08-26T05:18:31.395Z,23.18
2022-08-26T05:21:01.850Z,23.22
2022-08-26T05:23:35.121Z,23.26
2022-08-26T05:26:11.438Z,23.31
2022-08-26T05:28:40.631Z,23.34
2022-08-26T05:31:24.744Z,23.36
2022-08-26T05:34:00.138Z,23.41
2022-08-26T05:36:41.612Z,23.45
2022-08-26T05:39:16.074Z,23.52
2022-08-26T05:42:02.341Z,23.58
2022-08-26T05:44:53.526Z,23.63
2022-08-26T05:50:25.263Z,23.76
2022-08-26T05:52:58.597Z,23.82
2022-08-26T05:58:17.630Z,23.96
2022-08-26T06:00:56.984Z,24.03
2022-08-26T06:03:26.828Z,24.11
2022-08-26T06:05:56.620Z,24.19
2022-08-26T06:08:26.329Z,24.28
2022-08-26T06:11:01.497Z,24.36
2022-08-26T06:13:33.244Z,24.44
2022-08-26T06:16:11.560Z,24.51
2022-08-26T06:19:10.739Z,24.60
2022-08-26T06:21:42.310Z,24.68
2022-08-26T06:24:35.904Z,24.76
2022-08-26T06:27:13.067Z,24.86
2022-08-26T06:32:29.097Z,25.02
2022-08-26T06:34:58.985Z,25.11
2022-08-26T06:37:28.778Z,25.19
2022-08-26T06:39:58.987Z,25.27
2022-08-26T06:42:29.197Z,25.35
2022-08-26T06:45:00.354Z,25.44
2022-08-26T06:47:30.029Z,25.54
2022-08-26T06:50:50.367Z,25.63
2022-08-26T06:56:51.548Z,25.89
2022-08-26T07:01:14.514Z,25.98
2022-08-26T07:02:29.400Z,25.77
2022-08-26T07:17:14.740Z,26.59
2022-08-26T07:17:17.368Z,26.13
2022-08-26T07:23:01.465Z,26.78
2022-08-26T07:23:11.787Z,26.67
2022-08-26T07:28:03.186Z,26.87
2022-08-26T07:29:44.866Z,27.00
2022-08-26T07:32:18.656Z,27.09
2022-08-26T07:34:49.897Z,27.17
2022-08-26T07:37:19.661Z,27.25
2022-08-26T07:39:54.523Z,27.31
2022-08-26T07:42:27.152Z,27.38
2022-08-26T07:45:04.511Z,27.45
2022-08-26T07:47:35.172Z,27.53
2022-08-26T07:57:35.415Z,27.79
2022-08-26T07:57:39.926Z,27.69
2022-08-26T08:00:07.570Z,27.86
2022-08-26T08:02:36.744Z,27.91
2022-08-26T08:05:10.535Z,27.97
2022-08-26T08:07:45.588Z,28.04
2022-08-26T08:10:20.851Z,28.09
2022-08-26T08:12:57.583Z,28.16
2022-08-26T08:15:36.781Z,28.21
2022-08-26T08:18:06.041Z,28.26
2022-08-26T08:20:59.462Z,28.32
2022-08-26T08:23:50.502Z,28.38
2022-08-26T08:32:02.047Z,28.51
2022-08-26T08:34:33.533Z,28.62
2022-08-26T08:45:55.360Z,28.89
2022-08-26T08:49:11.003Z,28.96
2022-08-26T09:19:14.438Z,29.44
2022-08-26T09:21:58.228Z,29.53
2022-08-26T09:24:41.647Z,29.59
2022-08-26T09:27:12.364Z,29.64
2022-08-26T09:29:53.506Z,29.67
2022-08-26T09:32:36.006Z,29.69
2022-08-26T09:35:08.409Z,29.71
2022-08-26T09:38:09.077Z,29.73
2022-08-26T09:40:56.235Z,29.78
2022-08-26T09:43:37.161Z,29.83
2022-08-26T09:46:35.994Z,29.88
2022-08-26T09:57:14.009Z,30.08
2022-08-26T09:59:44.124Z,30.12
2022-08-26T10:02:29.728Z,30.14
2022-08-26T10:05:09.337Z,30.16
2022-08-26T10:07:46.555Z,30.18
2022-08-26T10:10:18.620Z,30.21
2022-08-26T10:12:59.201Z,30.23
2022-08-26T10:15:33.436Z,30.24
2022-08-26T10:18:10.206Z,30.27
2022-08-26T10:20:49.583Z,30.29
2022-08-26T10:23:23.277Z,30.30
2022-08-26T10:25:59.183Z,30.33
2022-08-26T10:28:35.813Z,30.39
2022-08-26T10:31:20.445Z,30.44
2022-08-26T10:34:00.854Z,30.49
2022-08-26T10:37:14.459Z,30.52
2022-08-26T10:39:59.304Z,30.56
2022-08-26T10:42:50.249Z,30.61
2022-08-26T10:45:37.369Z,30.66
2022-08-26T10:48:13.016Z,30.73
2022-08-26T10:50:44.351Z,30.80
2022-08-26T10:53:24.949Z,30.86
2022-08-26T10:56:18.740Z,30.90
2022-08-26T10:59:01.718Z,30.92
2022-08-26T11:01:55.391Z,30.98
2022-08-26T11:04:50.860Z,31.05
2022-08-26T11:07:47.985Z,31.10
2022-08-26T11:11:03.233Z,31.14
2022-08-26T11:14:03.496Z,31.21
2022-08-26T11:16:45.965Z,31.29
2022-08-26T11:20:00.666Z,31.35
2022-08-26T11:28:45.484Z,31.47
2022-08-26T11:30:57.765Z,31.53
2022-08-26T11:34:20.354Z,31.57
2022-08-26T11:37:07.444Z,31.61
2022-08-26T11:40:15.597Z,31.67
2022-08-26T12:13:43.091Z,32.18
2022-08-26T12:16:27.212Z,32.25
2022-08-26T12:18:57.675Z,32.31
2022-08-26T12:21:34.719Z,32.34
2022-08-26T12:24:05.511Z,32.38
2022-08-26T12:26:36.865Z,32.40
2022-08-26T12:29:20.017Z,32.43
2022-08-26T12:32:08.759Z,32.51
2022-08-26T12:34:38.191Z,32.55
2022-08-26T12:37:10.157Z,32.58
2022-08-26T12:39:42.477Z,32.65
2022-08-26T12:42:40.031Z,32.79
2022-08-26T12:45:10.645Z,33.00
2022-08-26T12:47:43.980Z,33.13
2022-08-26T12:50:20.494Z,33.18
2022-08-26T12:52:57.443Z,33.18
2022-08-26T12:55:38.607Z,33.21
2022-08-26T12:58:23.916Z,33.35
2022-08-26T13:00:54.867Z,33.42
2022-08-26T13:03:43.185Z,33.55
2022-08-26T13:06:16.991Z,33.74
2022-08-26T13:08:47.745Z,33.95
2022-08-26T13:11:19.744Z,34.03
2022-08-26T13:13:56.877Z,34.09
2022-08-26T13:16:25.387Z,34.25
2022-08-26T13:18:57.589Z,34.35
2022-08-26T13:21:29.779Z,34.46
2022-08-26T13:24:11.223Z,34.57
2022-08-26T13:26:40.807Z,34.59
2022-08-26T13:29:10.681Z,34.49
2022-08-26T13:31:42.097Z,34.42
2022-08-26T13:34:13.999Z,34.32
2022-08-26T13:36:44.323Z,34.23
2022-08-26T13:39:13.638Z,34.19
2022-08-26T13:41:42.995Z,34.19
2022-08-26T13:44:13.048Z,34.16
2022-08-26T13:46:42.123Z,34.22
2022-08-26T13:49:12.116Z,34.29
2022-08-26T13:51:41.392Z,34.41
2022-08-26T13:54:10.214Z,34.53
2022-08-26T13:56:39.196Z,34.68
2022-08-26T13:59:08.247Z,34.85
2022-08-26T14:01:39.498Z,35.01
2022-08-26T14:04:08.633Z,35.01
2022-08-26T14:06:37.563Z,35.10
2022-08-26T14:09:06.562Z,35.21
2022-08-26T14:11:50.596Z,35.34
2022-08-26T14:14:24.555Z,35.47
2022-08-26T14:16:58.862Z,35.48
2022-08-26T14:19:30.115Z,35.58
2022-08-26T14:22:00.515Z,35.68
2022-08-26T14:24:29.857Z,35.76
2022-08-26T14:26:58.906Z,35.92
2022-08-26T14:29:28.121Z,36.09
2022-08-26T14:32:00.678Z,36.21
2022-08-26T14:34:30.001Z,36.30
2022-08-26T14:36:59.003Z,36.40
2022-08-26T14:39:37.781Z,36.45
2022-08-26T14:42:08.438Z,36.52
2022-08-26T14:44:38.048Z,36.56
2022-08-26T14:47:07.928Z,36.61
2022-08-26T14:49:40.322Z,36.61
2022-08-26T14:52:09.524Z,36.58
2022-08-26T14:54:38.925Z,36.53
2022-08-26T14:57:11.239Z,36.53
2022-08-26T14:59:42.933Z,36.48
2022-08-26T15:02:27.747Z,36.47
2022-08-26T15:05:03.581Z,36.43
2022-08-26T15:07:32.678Z,36.43
2022-08-26T15:10:01.711Z,36.48
2022-08-26T15:12:30.884Z,36.55
2022-08-26T15:15:00.194Z,36.60
2022-08-26T15:17:29.261Z,36.59
2022-08-26T15:19:58.275Z,36.60
2022-08-26T15:22:29.825Z,36.62
2022-08-26T15:24:59.149Z,36.52
2022-08-26T15:27:28.422Z,36.43
2022-08-26T15:29:57.350Z,36.37
2022-08-26T15:32:26.466Z,36.26
2022-08-26T15:34:55.515Z,36.16
2022-08-26T15:37:24.773Z,36.06
2022-08-26T15:39:53.681Z,36.01
2022-08-26T15:42:22.977Z,35.99
2022-08-26T15:44:52.325Z,35.97
2022-08-26T15:47:21.700Z,35.96
2022-08-26T15:49:50.857Z,35.96
2022-08-26T15:52:19.729Z,35.94
2022-08-26T15:54:48.754Z,35.89
2022-08-26T15:57:22.605Z,35.79
2022-08-26T15:59:51.703Z,35.72
2022-08-26T16:02:20.858Z,35.64
2022-08-26T16:04:49.914Z,35.58
2022-08-26T16:07:31.818Z,35.51
2022-08-26T16:10:00.769Z,35.40
2022-08-26T16:12:29.868Z,35.22
2022-08-26T16:14:58.779Z,35.02
2022-08-26T16:17:28.106Z,34.90
2022-08-26T16:19:57.320Z,34.80
2022-08-26T16:22:26.887Z,34.72
2022-08-26T16:24:58.629Z,34.60
2022-08-26T16:27:27.506Z,34.49
2022-08-26T16:29:56.375Z,34.38
2022-08-26T16:32:28.283Z,34.31
2022-08-26T16:35:00.478Z,34.20
2022-08-26T16:37:29.561Z,34.07
2022-08-26T16:39:58.534Z,33.94
2022-08-26T16:42:27.542Z,33.85
2022-08-26T16:44:56.555Z,33.74
2022-08-26T16:47:26.477Z,33.66
2022-08-26T16:49:55.396Z,33.58
2022-08-26T16:52:24.977Z,33.46
2022-08-26T16:54:59.158Z,33.34
2022-08-26T16:57:28.389Z,33.22
2022-08-26T16:59:57.265Z,33.11
2022-08-26T17:02:26.804Z,33.01
2022-08-26T17:04:55.955Z,32.92
2022-08-26T17:07:26.083Z,32.85
2022-08-26T17:09:55.681Z,32.78
2022-08-26T17:12:24.963Z,32.73
2022-08-26T17:14:53.828Z,32.68
2022-08-26T17:17:22.810Z,32.59
2022-08-26T17:19:51.972Z,32.50
2022-08-26T17:22:20.875Z,32.41
2022-08-26T17:24:49.838Z,32.30
2022-08-26T17:27:19.405Z,32.19
2022-08-26T17:29:48.299Z,32.10
2022-08-26T17:32:17.268Z,32.01
2022-08-26T17:34:46.659Z,31.90
2022-08-26T17:37:16.384Z,31.83
2022-08-26T17:39:45.434Z,31.76
2022-08-26T17:42:14.689Z,31.69
2022-08-26T17:44:46.366Z,31.60
2022-08-26T17:47:15.588Z,31.50
2022-08-26T17:49:45.052Z,31.41
2022-08-26T17:52:14.250Z,31.33
2022-08-26T17:54:43.307Z,31.24
2022-08-26T17:57:12.333Z,31.16
2022-08-26T17:59:41.781Z,31.08
2022-08-26T18:02:10.829Z,31.00
2022-08-26T18:04:39.771Z,30.94
2022-08-26T18:07:09.206Z,30.87
2022-08-26T18:09:38.055Z,30.81
2022-08-26T18:12:08.131Z,30.74
2022-08-26T18:14:37.271Z,30.65
2022-08-26T18:17:06.283Z,30.59
2022-08-26T18:19:35.896Z,30.53
2022-08-26T18:22:06.324Z,30.47
2022-08-26T18:24:35.491Z,30.42
2022-08-26T18:27:05.106Z,30.36
2022-08-26T18:29:34.300Z,30.28
2022-08-26T18:32:03.794Z,30.19
2022-08-26T18:34:34.109Z,30.12
2022-08-26T18:37:03.190Z,30.04
2022-08-26T18:39:32.352Z,29.96
2022-08-26T18:42:01.495Z,29.91
2022-08-26T18:44:30.428Z,29.85
2022-08-26T18:46:59.398Z,29.78
2022-08-26T18:49:28.997Z,29.72
2022-08-26T18:51:57.977Z,29.66
2022-08-26T18:54:27.209Z,29.60
2022-08-26T18:56:56.163Z,29.56
2022-08-26T18:59:29.626Z,29.52
2022-08-26T19:02:00.523Z,29.51
2022-08-26T19:04:29.442Z,29.49
2022-08-26T19:06:58.513Z,29.44
2022-08-26T19:09:28.161Z,29.38
2022-08-26T19:11:58.384Z,29.32
2022-08-26T19:14:27.519Z,29.28
2022-08-26T19:16:56.646Z,29.25
2022-08-26T19:19:25.662Z,29.20
2022-08-26T19:21:54.671Z,29.16
2022-08-26T19:24:27.294Z,29.12
2022-08-26T19:27:00.107Z,29.06
2022-08-26T19:29:33.738Z,29.00
2022-08-26T19:32:04.165Z,28.92
2022-08-26T19:34:33.279Z,28.85
2022-08-26T19:37:02.365Z,28.80
2022-08-26T19:39:31.263Z,28.76
2022-08-26T19:42:00.266Z,28.72
2022-08-26T19:44:47.658Z,28.68
2022-08-26T19:47:16.684Z,28.63
2022-08-26T19:49:45.669Z,28.60
2022-08-26T19:52:14.841Z,28.57
2022-08-26T19:54:44.317Z,28.52
2022-08-26T19:57:13.158Z,28.48
2022-08-26T19:59:43.827Z,28.45
2022-08-26T20:02:14.170Z,28.42
2022-08-26T20:04:43.865Z,28.38
2022-08-26T20:07:18.115Z,28.33
2022-08-26T20:09:48.960Z,28.27
2022-08-26T20:12:18.525Z,28.22
2022-08-26T20:14:47.822Z,28.17
2022-08-26T20:17:16.810Z,28.13
2022-08-26T20:20:04.216Z,28.11
2022-08-26T20:22:33.995Z,28.05
2022-08-26T20:25:02.894Z,28.00
2022-08-26T20:27:37.662Z,27.97
2022-08-26T20:30:10.032Z,27.94
2022-08-26T20:32:39.881Z,27.89
2022-08-26T20:35:13.655Z,27.84
2022-08-26T20:37:43.153Z,27.78
2022-08-26T20:40:14.704Z,27.73
2022-08-26T20:42:43.596Z,27.68
2022-08-26T20:45:12.830Z,27.62
2022-08-26T20:47:43.055Z,27.58
2022-08-26T20:50:12.034Z,27.55
2022-08-26T20:52:41.236Z,27.51
2022-08-26T20:55:11.078Z,27.46
2022-08-26T20:57:41.640Z,27.43
2022-08-26T21:00:13.734Z,27.41
2022-08-26T21:02:44.081Z,27.39
2022-08-26T21:05:13.185Z,27.36
2022-08-26T21:07:42.550Z,27.33
2022-08-26T21:10:14.705Z,27.30
2022-08-26T21:12:43.719Z,27.27
2022-08-26T21:15:12.913Z,27.25
2022-08-26T21:17:41.831Z,27.23
2022-08-26T21:20:11.155Z,27.19
2022-08-26T21:22:40.293Z,27.17
2022-08-26T21:25:11.023Z,27.08
2022-08-26T21:27:39.945Z,26.99
2022-08-26T21:30:11.605Z,26.91
2022-08-26T21:32:40.647Z,26.84
2022-08-26T21:35:10.891Z,26.84
2022-08-26T21:37:39.995Z,26.89
2022-08-26T21:40:10.885Z,26.89
2022-08-26T21:42:39.989Z,26.89
2022-08-26T21:45:10.087Z,26.81
2022-08-26T21:47:40.040Z,26.73
2022-08-26T21:50:09.820Z,26.63
2022-08-26T21:52:39.707Z,26.58
2022-08-26T21:55:11.707Z,26.49
2022-08-26T21:57:40.931Z,26.40
2022-08-26T22:00:15.153Z,26.34
2022-08-26T22:02:44.373Z,26.29
2022-08-26T22:05:13.622Z,26.23
2022-08-26T22:07:42.476Z,26.17
2022-08-26T22:10:11.971Z,26.09
2022-08-26T22:12:40.841Z,26.03
2022-08-26T22:15:11.645Z,25.97
2022-08-26T22:17:40.689Z,25.89
2022-08-26T22:20:16.566Z,25.82
2022-08-26T22:22:46.134Z,25.74
2022-08-26T22:25:15.381Z,25.65
2022-08-26T22:27:44.273Z,25.58
2022-08-26T22:30:14.017Z,25.51
2022-08-26T22:32:45.111Z,25.45
2022-08-26T22:35:29.203Z,25.38
2022-08-26T22:37:59.302Z,25.29
2022-08-26T22:40:28.445Z,25.23
2022-08-26T22:43:00.227Z,25.19
2022-08-26T22:45:31.182Z,25.17
2022-08-26T22:48:04.417Z,25.17
2022-08-26T22:50:33.680Z,25.17
2022-08-26T22:53:02.678Z,25.15
2022-08-26T22:55:31.739Z,25.11
2022-08-26T22:58:01.374Z,25.11
2022-08-26T23:00:32.366Z,25.09
2022-08-26T23:03:03.758Z,25.00
2022-08-26T23:05:33.053Z,24.96
2022-08-26T23:08:02.863Z,24.92
2022-08-26T23:10:32.164Z,24.90
2022-08-26T23:13:01.804Z,24.85
2022-08-26T23:15:31.331Z,24.86
2022-08-26T23:18:00.529Z,24.91
2022-08-26T23:20:30.732Z,24.93
2022-08-26T23:23:00.866Z,24.93
2022-08-26T23:25:31.876Z,24.88
2022-08-26T23:28:01.127Z,24.81
2022-08-26T23:30:32.415Z,24.73
2022-08-26T23:33:01.836Z,24.65
2022-08-26T23:35:30.945Z,24.61
2022-08-26T23:38:01.146Z,24.58
2022-08-26T23:40:33.889Z,24.52
2022-08-26T23:43:05.297Z,24.49
2022-08-26T23:45:34.794Z,24.46
2022-08-26T23:48:05.027Z,24.38
2022-08-26T23:51:03.970Z,24.36
2022-08-26T23:53:33.620Z,24.38
2022-08-26T23:56:02.885Z,24.38
2022-08-26T23:58:31.928Z,24.39
